createdAt,value
2017-12-21T00:01:34.360Z,102316.71
2017-12-21T00:04:02.717Z,102328.09
2017-12-21T00:06:31.075Z,102324.07
2017-12-21T00:08:59.435Z,102322.69
2017-12-21T00:11:27.840Z,102321.77
2017-12-21T00:13:56.212Z,102306.09
2017-12-21T00:16:24.601Z,102294.86
2017-12-21T00:18:52.975Z,102283.45
2017-12-21T00:21:21.360Z,102265.38
2017-12-21T00:23:49.721Z,102268.27
2017-12-21T00:26:18.084Z,102264.72
2017-12-21T00:28:46.432Z,102271.88
2017-12-21T00:31:14.973Z,102263.00
2017-12-21T00:33:43.351Z,102272.91
2017-12-21T00:36:11.834Z,102267.08
2017-12-21T00:38:40.197Z,102273.90
2017-12-21T00:41:08.544Z,102266.22
2017-12-21T00:43:37.379Z,102263.48
2017-12-21T00:46:12.553Z,102250.54
2017-12-21T00:48:41.320Z,102246.84
2017-12-21T00:51:09.725Z,102251.77
2017-12-21T00:53:38.734Z,102244.66
2017-12-21T00:56:07.102Z,102253.11
2017-12-21T00:58:35.587Z,102256.04
2017-12-21T01:01:04.345Z,102253.08
2017-12-21T01:03:32.695Z,102245.94
2017-12-21T01:06:01.081Z,102238.41
2017-12-21T01:08:29.439Z,102228.94
2017-12-21T01:10:58.306Z,102219.61
2017-12-21T01:13:27.122Z,102229.58
2017-12-21T01:15:55.492Z,102229.02
2017-12-21T01:18:23.902Z,102231.98
2017-12-21T01:20:52.371Z,102233.63
2017-12-21T01:23:20.764Z,102243.92
2017-12-21T01:25:49.119Z,102245.16
2017-12-21T01:28:17.484Z,102243.57
2017-12-21T01:30:45.850Z,102243.63
2017-12-21T01:33:14.213Z,102245.97
2017-12-21T01:35:42.956Z,102229.91
2017-12-21T01:38:11.332Z,102225.03
2017-12-21T01:40:39.688Z,102222.83
2017-12-21T01:43:10.037Z,102218.00
2017-12-21T01:45:38.405Z,102218.77
2017-12-21T01:48:06.770Z,102234.02
2017-12-21T01:50:35.156Z,102233.64
2017-12-21T01:53:03.565Z,102229.86
2017-12-21T01:55:31.930Z,102232.76
2017-12-21T01:58:01.101Z,102230.56
2017-12-21T02:00:29.482Z,102223.70
2017-12-21T02:02:57.829Z,102221.73
2017-12-21T02:05:26.712Z,102223.54
2017-12-21T02:07:55.077Z,102214.16
2017-12-21T02:10:23.428Z,102211.91
2017-12-21T02:12:51.767Z,102204.30
2017-12-21T02:15:20.164Z,102210.42
2017-12-21T02:17:48.511Z,102208.39
2017-12-21T02:20:17.261Z,102212.92
2017-12-21T02:22:45.737Z,102210.84
2017-12-21T02:25:14.091Z,102204.60
2017-12-21T02:27:42.440Z,102204.36
2017-12-21T02:30:10.918Z,102206.03
2017-12-21T02:32:39.668Z,102200.73
2017-12-21T02:35:08.048Z,102196.49
2017-12-21T02:37:36.495Z,102185.50
2017-12-21T02:40:04.913Z,102187.88
2017-12-21T02:42:33.272Z,102183.38
2017-12-21T02:45:01.675Z,102191.77
2017-12-21T02:47:30.035Z,102187.25
2017-12-21T02:49:58.389Z,102191.48
2017-12-21T02:52:26.800Z,102187.13
2017-12-21T02:54:55.169Z,102185.16
2017-12-21T02:57:23.644Z,102173.77
2017-12-21T02:59:52.008Z,102174.81
2017-12-21T03:02:20.370Z,102167.48
2017-12-21T03:04:48.795Z,102167.06
2017-12-21T03:07:17.248Z,102170.08
2017-12-21T03:09:45.609Z,102173.73
2017-12-21T03:12:13.952Z,102177.67
2017-12-21T03:14:42.400Z,102168.87
2017-12-21T03:17:10.788Z,102156.94
2017-12-21T03:19:39.196Z,102152.77
2017-12-21T03:22:07.752Z,102162.17
2017-12-21T03:24:36.292Z,102157.17
2017-12-21T03:27:04.721Z,102154.20
2017-12-21T03:29:33.099Z,102149.03
2017-12-21T03:32:01.473Z,102152.40
2017-12-21T03:34:29.820Z,102149.14
2017-12-21T03:36:58.229Z,102153.23
2017-12-21T03:39:26.573Z,102152.06
2017-12-21T03:41:54.921Z,102155.74
2017-12-21T03:44:23.680Z,102149.48
2017-12-21T03:46:52.045Z,102144.84
2017-12-21T03:49:20.392Z,102141.31
2017-12-21T03:51:48.780Z,102145.84
2017-12-21T03:54:17.137Z,102144.05
2017-12-21T03:56:45.875Z,102138.55
2017-12-21T03:59:14.344Z,102132.86
2017-12-21T04:01:42.694Z,102127.92
2017-12-21T04:04:11.111Z,102125.95
2017-12-21T04:06:39.592Z,102126.13
2017-12-21T04:09:07.953Z,102126.89
2017-12-21T04:11:36.310Z,102118.02
2017-12-21T04:14:04.677Z,102119.58
2017-12-21T04:16:33.491Z,102118.41
2017-12-21T04:19:01.924Z,102109.86
2017-12-21T04:21:30.268Z,102107.31
2017-12-21T04:23:58.757Z,102100.52
2017-12-21T04:26:27.108Z,102103.47
2017-12-21T04:28:55.489Z,102107.28
2017-12-21T04:31:23.849Z,102102.23
2017-12-21T04:33:52.264Z,102111.08
2017-12-21T04:36:20.644Z,102114.03
2017-12-21T04:38:49.073Z,102111.27
2017-12-21T04:41:17.893Z,102109.27
2017-12-21T04:43:46.293Z,102115.70
2017-12-21T04:46:14.691Z,102110.09
2017-12-21T04:48:43.129Z,102113.34
2017-12-21T04:51:11.541Z,102112.27
2017-12-21T04:53:39.903Z,102113.10
2017-12-21T04:56:08.256Z,102111.52
2017-12-21T04:58:36.642Z,102109.15
2017-12-21T05:01:04.999Z,102109.27
2017-12-21T05:03:33.790Z,102111.28
2017-12-21T05:06:02.566Z,102110.81
2017-12-21T05:08:31.312Z,102100.63
2017-12-21T05:10:59.669Z,102101.98
2017-12-21T05:13:28.038Z,102096.83
2017-12-21T05:15:56.384Z,102099.67
2017-12-21T05:18:24.738Z,102097.53
2017-12-21T05:20:53.159Z,102101.98
2017-12-21T05:23:21.632Z,102100.83
2017-12-21T05:25:50.392Z,102103.80
2017-12-21T05:28:18.766Z,102099.64
2017-12-21T05:30:47.116Z,102104.02
2017-12-21T05:33:15.469Z,102103.38
2017-12-21T05:35:43.844Z,102101.91
2017-12-21T05:38:12.269Z,102100.10
2017-12-21T05:40:40.778Z,102100.42
2017-12-21T05:43:09.249Z,102103.65
2017-12-21T05:45:37.596Z,102097.20
2017-12-21T05:48:05.952Z,102096.88
2017-12-21T05:50:34.373Z,102092.73
2017-12-21T05:53:02.746Z,102087.41
2017-12-21T05:55:31.111Z,102084.69
2017-12-21T05:57:59.493Z,102092.96
2017-12-21T06:00:28.494Z,102088.19
2017-12-21T06:02:56.845Z,102083.27
2017-12-21T06:05:25.215Z,102081.00
2017-12-21T06:07:53.615Z,102083.70
2017-12-21T06:10:21.993Z,102074.69
2017-12-21T06:12:50.364Z,102075.64
2017-12-21T06:15:18.749Z,102076.62
2017-12-21T06:17:47.099Z,102070.28
2017-12-21T06:20:15.497Z,102071.38
2017-12-21T06:22:43.856Z,102076.77
2017-12-21T06:25:12.674Z,102074.56
2017-12-21T06:27:41.084Z,102074.75
2017-12-21T06:30:09.444Z,102069.73
2017-12-21T06:32:37.820Z,102066.70
2017-12-21T06:35:06.509Z,102076.47
2017-12-21T06:37:34.919Z,102070.02
2017-12-21T06:40:03.380Z,102067.28
2017-12-21T06:42:31.773Z,102056.44
2017-12-21T06:45:00.245Z,102061.17
2017-12-21T06:47:28.674Z,102060.59
2017-12-21T06:49:57.047Z,102061.38
2017-12-21T06:52:25.811Z,102054.45
2017-12-21T06:54:54.268Z,102055.55
2017-12-21T06:57:22.646Z,102061.20
2017-12-21T06:59:51.044Z,102062.65
2017-12-21T07:02:19.405Z,102059.98
2017-12-21T07:04:47.779Z,102064.14
2017-12-21T07:07:16.159Z,102069.88
2017-12-21T07:09:44.538Z,102066.50
2017-12-21T07:12:13.021Z,102071.75
2017-12-21T07:14:41.372Z,102074.34
2017-12-21T07:17:10.632Z,102079.57
2017-12-21T07:19:39.408Z,102078.96
2017-12-21T07:22:07.769Z,102076.50
2017-12-21T07:24:36.149Z,102084.62
2017-12-21T07:27:04.567Z,102083.77
2017-12-21T07:29:33.513Z,102078.53
2017-12-21T07:32:01.963Z,102080.95
2017-12-21T07:34:30.327Z,102082.97
2017-12-21T07:36:58.684Z,102094.30
2017-12-21T07:39:27.427Z,102086.97
2017-12-21T07:41:55.820Z,102086.10
2017-12-21T07:44:24.614Z,102086.44
2017-12-21T07:46:52.986Z,102089.16
2017-12-21T07:49:21.465Z,102084.51
2017-12-21T07:51:49.833Z,102079.62
2017-12-21T07:54:18.193Z,102085.98
2017-12-21T07:56:46.588Z,102085.91
2017-12-21T07:59:14.958Z,102076.27
2017-12-21T08:01:43.362Z,102070.02
2017-12-21T08:04:11.732Z,102075.20
2017-12-21T08:06:40.089Z,102075.62
2017-12-21T08:09:08.441Z,102071.23
2017-12-21T08:11:37.209Z,102070.87
2017-12-21T08:14:05.565Z,102061.97
2017-12-21T08:16:33.930Z,102063.59
2017-12-21T08:19:02.305Z,102069.52
2017-12-21T08:21:30.657Z,102066.63
2017-12-21T08:23:59.068Z,102065.23
2017-12-21T08:26:27.442Z,102060.81
2017-12-21T08:28:55.800Z,102067.72
2017-12-21T08:31:24.170Z,102059.73
2017-12-21T08:33:52.549Z,102067.55
2017-12-21T08:36:20.976Z,102062.63
2017-12-21T08:38:49.418Z,102069.09
2017-12-21T08:41:17.825Z,102058.17
2017-12-21T08:43:46.196Z,102055.61
2017-12-21T08:46:14.549Z,102062.72
2017-12-21T08:48:42.933Z,102059.36
2017-12-21T08:51:11.348Z,102058.69
2017-12-21T08:53:39.704Z,102060.89
2017-12-21T08:56:08.100Z,102062.83
2017-12-21T08:58:36.581Z,102071.41
2017-12-21T09:01:04.950Z,102065.86
2017-12-21T09:03:33.370Z,102067.11
2017-12-21T09:06:01.737Z,102073.95
2017-12-21T09:08:30.209Z,102065.56
2017-12-21T09:10:58.585Z,102073.87
2017-12-21T09:13:26.938Z,102076.42
2017-12-21T09:15:55.294Z,102074.98
2017-12-21T09:18:23.675Z,102073.63
2017-12-21T09:20:52.203Z,102070.42
2017-12-21T09:23:20.568Z,102076.06
2017-12-21T09:25:48.945Z,102073.41
2017-12-21T09:28:17.329Z,102074.44
2017-12-21T09:30:45.716Z,102080.33
2017-12-21T09:33:14.180Z,102077.02
2017-12-21T09:35:42.563Z,102085.71
2017-12-21T09:38:10.931Z,102087.63
2017-12-21T09:40:39.333Z,102079.92
2017-12-21T09:43:07.814Z,102076.66
2017-12-21T09:45:36.188Z,102089.86
2017-12-21T09:48:05.392Z,102093.55
2017-12-21T09:50:33.790Z,102098.30
2017-12-21T09:53:02.150Z,102095.78
2017-12-21T09:55:30.528Z,102091.69
2017-12-21T09:57:58.918Z,102092.59
2017-12-21T10:00:27.277Z,102092.56
2017-12-21T10:02:55.656Z,102097.04
2017-12-21T10:05:24.013Z,102096.61
2017-12-21T10:07:52.368Z,102089.05
2017-12-21T10:10:20.753Z,102092.58
2017-12-21T10:12:49.113Z,102097.03
2017-12-21T10:15:17.881Z,102091.12
2017-12-21T10:17:46.347Z,102089.99
2017-12-21T10:20:14.713Z,102096.95
2017-12-21T10:22:43.107Z,102091.23
2017-12-21T10:25:11.581Z,102084.06
2017-12-21T10:27:39.938Z,102084.00
2017-12-21T10:30:08.297Z,102077.36
2017-12-21T10:32:36.708Z,102078.20
2017-12-21T10:35:05.081Z,102072.27
2017-12-21T10:37:33.543Z,102078.55
2017-12-21T10:40:01.957Z,102067.88
2017-12-21T10:42:30.328Z,102069.92
2017-12-21T10:44:58.693Z,102070.83
2017-12-21T10:47:27.085Z,102063.83
2017-12-21T10:49:55.450Z,102068.30
2017-12-21T10:52:23.809Z,102068.95
2017-12-21T10:54:52.180Z,102068.01
2017-12-21T10:57:20.613Z,102072.47
2017-12-21T10:59:48.982Z,102074.56
2017-12-21T11:02:17.461Z,102064.41
2017-12-21T11:04:45.845Z,102068.23
2017-12-21T11:07:14.219Z,102061.45
2017-12-21T11:09:42.673Z,102059.60
2017-12-21T11:12:11.081Z,102059.70
2017-12-21T11:14:39.457Z,102059.17
2017-12-21T11:17:07.942Z,102062.80
2017-12-21T11:19:36.321Z,102057.30
2017-12-21T11:22:04.713Z,102058.62
2017-12-21T11:24:33.164Z,102059.20
2017-12-21T11:27:01.533Z,102066.91
2017-12-21T11:29:30.010Z,102071.16
2017-12-21T11:31:58.388Z,102071.64
2017-12-21T11:34:26.883Z,102060.83
2017-12-21T11:36:55.245Z,102063.08
2017-12-21T11:39:23.655Z,102055.64
2017-12-21T11:41:52.036Z,102044.20
2017-12-21T11:44:21.332Z,102045.75
2017-12-21T11:46:49.774Z,102057.94
2017-12-21T11:49:18.140Z,102066.86
2017-12-21T11:51:46.896Z,102061.13
2017-12-21T11:54:15.277Z,102066.40
2017-12-21T11:56:43.650Z,102072.97
2017-12-21T11:59:12.025Z,102075.60
2017-12-21T12:01:40.949Z,102076.11
2017-12-21T12:04:09.770Z,102078.68
2017-12-21T12:06:38.173Z,102072.96
2017-12-21T12:09:06.555Z,102065.45
2017-12-21T12:11:35.009Z,102061.44
2017-12-21T12:14:03.361Z,102069.44
2017-12-21T12:16:32.216Z,102064.88
2017-12-21T12:19:00.593Z,102068.67
2017-12-21T12:21:28.969Z,102064.82
2017-12-21T12:23:57.445Z,102065.53
2017-12-21T12:26:25.830Z,102069.97
2017-12-21T12:28:54.274Z,102074.31
2017-12-21T12:31:22.662Z,102073.87
2017-12-21T12:33:51.017Z,102080.39
2017-12-21T12:36:19.520Z,102074.98
2017-12-21T12:38:47.896Z,102077.54
2017-12-21T12:41:16.270Z,102084.81
2017-12-21T12:43:44.635Z,102076.61
2017-12-21T12:46:13.023Z,102081.26
2017-12-21T12:48:41.382Z,102086.10
2017-12-21T12:51:10.145Z,102081.06
2017-12-21T12:53:38.601Z,102088.33
2017-12-21T12:56:06.981Z,102089.56
2017-12-21T12:58:35.353Z,102086.82
2017-12-21T13:01:03.734Z,102085.47
2017-12-21T13:03:32.133Z,102084.34
2017-12-21T13:06:00.605Z,102079.59
2017-12-21T13:08:28.986Z,102067.81
2017-12-21T13:10:57.353Z,102073.73
2017-12-21T13:13:25.757Z,102082.97
2017-12-21T13:15:54.221Z,102086.66
2017-12-21T13:18:22.591Z,102086.01
2017-12-21T13:20:51.076Z,102086.59
2017-12-21T13:23:19.563Z,102083.88
2017-12-21T13:25:47.927Z,102089.59
2017-12-21T13:28:16.295Z,102091.12
2017-12-21T13:30:44.670Z,102081.60
2017-12-21T13:33:13.058Z,102084.09
2017-12-21T13:35:41.477Z,102082.93
2017-12-21T13:38:09.858Z,102081.30
2017-12-21T13:40:38.225Z,102077.10
2017-12-21T13:43:06.596Z,102080.09
2017-12-21T13:45:35.074Z,102078.48
2017-12-21T13:48:03.456Z,102073.95
2017-12-21T13:50:31.825Z,102072.30
2017-12-21T13:53:00.412Z,102074.09
2017-12-21T13:55:28.772Z,102068.88
2017-12-21T13:57:57.164Z,102062.81
2017-12-21T14:00:25.625Z,102061.63
2017-12-21T14:02:53.986Z,102071.95
2017-12-21T14:05:22.408Z,102070.25
2017-12-21T14:07:50.892Z,102070.78
2017-12-21T14:10:19.923Z,102074.19
2017-12-21T14:12:48.696Z,102077.17
2017-12-21T14:15:17.083Z,102081.45
2017-12-21T14:19:51.113Z,102100.41
2017-12-21T14:22:19.888Z,102107.61
2017-12-21T14:24:48.332Z,102122.45
2017-12-21T14:27:16.741Z,102127.59
2017-12-21T14:29:45.133Z,102129.01
2017-12-21T14:32:13.930Z,102117.09
2017-12-21T14:34:42.473Z,102113.55
2017-12-21T14:37:11.056Z,102115.21
2017-12-21T14:39:39.421Z,102111.23
2017-12-21T14:42:07.785Z,102104.52
2017-12-21T14:44:36.166Z,102100.92
2017-12-21T14:47:04.523Z,102100.10
2017-12-21T14:49:32.991Z,102114.03
2017-12-21T14:52:01.492Z,102129.72
2017-12-21T14:54:29.844Z,102151.00
2017-12-21T14:56:58.592Z,102162.76
2017-12-21T14:59:26.976Z,102159.87
2017-12-21T15:01:55.325Z,102154.44
2017-12-21T15:04:23.733Z,102150.82
2017-12-21T15:06:52.105Z,102143.41
2017-12-21T15:09:20.479Z,102135.60
2017-12-21T15:11:48.865Z,102148.41
2017-12-21T15:14:17.357Z,102150.41
2017-12-21T15:16:45.744Z,102148.37
2017-12-21T15:19:14.101Z,102154.28
2017-12-21T15:21:42.482Z,102163.73
2017-12-21T15:24:10.839Z,102163.88
2017-12-21T15:26:39.232Z,102158.25
2017-12-21T15:29:07.612Z,102166.11
2017-12-21T15:31:35.973Z,102173.17
2017-12-21T15:34:04.330Z,102174.61
2017-12-21T15:36:33.113Z,102179.63
2017-12-21T15:39:01.878Z,102187.11
2017-12-21T15:41:30.328Z,102185.31
2017-12-21T15:43:58.709Z,102185.49
2017-12-21T15:46:27.189Z,102182.16
2017-12-21T15:48:55.644Z,102183.35
2017-12-21T15:51:24.028Z,102190.17
2017-12-21T15:53:52.505Z,102190.03
2017-12-21T15:56:20.863Z,102194.55
2017-12-21T15:58:49.698Z,102195.09
2017-12-21T16:01:18.081Z,102191.73
2017-12-21T16:03:46.457Z,102196.82
2017-12-21T16:06:14.836Z,102213.56
2017-12-21T16:08:43.213Z,102214.83
2017-12-21T16:11:11.609Z,102221.20
2017-12-21T16:13:40.046Z,102225.02
2017-12-21T16:16:08.401Z,102208.47
2017-12-21T16:18:37.228Z,102201.26
2017-12-21T16:21:05.618Z,102210.15
2017-12-21T16:23:34.028Z,102208.63
2017-12-21T16:26:02.384Z,102221.11
2017-12-21T16:28:30.752Z,102228.06
2017-12-21T16:30:59.134Z,102220.41
2017-12-21T16:33:27.518Z,102238.63
2017-12-21T16:35:55.890Z,102243.21
2017-12-21T16:38:24.249Z,102238.91
2017-12-21T16:40:52.599Z,102238.55
2017-12-21T16:43:21.362Z,102235.23
2017-12-21T16:45:49.817Z,102227.14
2017-12-21T16:48:18.211Z,102237.28
2017-12-21T16:50:46.728Z,102245.77
2017-12-21T16:53:15.053Z,102251.84
2017-12-21T16:55:43.400Z,102262.97
2017-12-21T16:58:11.793Z,102262.34
2017-12-21T17:00:40.146Z,102265.28
2017-12-21T17:03:09.781Z,102267.09
2017-12-21T17:05:38.177Z,102259.42
2017-12-21T17:08:06.568Z,102247.84
2017-12-21T17:10:34.924Z,102258.89
2017-12-21T17:13:03.321Z,102246.18
2017-12-21T17:15:31.701Z,102254.27
2017-12-21T17:18:00.746Z,102260.08
2017-12-21T17:20:29.114Z,102260.83
2017-12-21T17:22:57.957Z,102265.96
2017-12-21T17:25:26.322Z,102273.37
2017-12-21T17:27:54.728Z,102270.97
2017-12-21T17:30:23.082Z,102273.81
2017-12-21T17:32:51.524Z,102269.48
2017-12-21T17:35:20.233Z,102271.81
2017-12-21T17:37:48.654Z,102262.91
2017-12-21T17:40:17.022Z,102255.45
2017-12-21T17:42:45.492Z,102266.42
2017-12-21T17:45:13.878Z,102267.83
2017-12-21T17:47:42.245Z,102275.92
2017-12-21T17:50:10.629Z,102264.81
2017-12-21T17:52:39.018Z,102264.98
2017-12-21T17:55:07.429Z,102280.61
2017-12-21T17:57:36.209Z,102299.31
2017-12-21T18:00:04.561Z,102303.61
2017-12-21T18:02:32.919Z,102310.52
2017-12-21T18:05:01.331Z,102311.98
2017-12-21T18:07:29.665Z,102317.25
2017-12-21T18:09:58.026Z,102302.43
2017-12-21T18:12:26.807Z,102307.67
2017-12-21T18:14:55.234Z,102316.86
2017-12-21T18:17:23.584Z,102313.59
2017-12-21T18:19:52.008Z,102319.41
2017-12-21T18:22:20.385Z,102310.97
2017-12-21T18:24:48.789Z,102313.55
2017-12-21T18:27:17.594Z,102314.57
2017-12-21T18:29:46.341Z,102323.16
2017-12-21T18:32:14.741Z,102319.47
2017-12-21T18:34:43.117Z,102322.03
2017-12-21T18:37:11.618Z,102325.77
2017-12-21T18:39:40.468Z,102331.81
2017-12-21T18:42:08.853Z,102332.85
2017-12-21T18:44:37.208Z,102329.73
2017-12-21T18:47:05.702Z,102327.81
2017-12-21T18:49:34.199Z,102329.73
2017-12-21T18:52:02.548Z,102333.66
2017-12-21T18:54:32.726Z,102320.48
2017-12-21T18:57:01.567Z,102310.62
2017-12-21T18:59:29.921Z,102303.16
2017-12-21T19:01:58.325Z,102301.52
2017-12-21T19:04:26.698Z,102287.75
2017-12-21T19:06:55.081Z,102296.00
2017-12-21T19:09:23.442Z,102293.63
2017-12-21T19:11:51.841Z,102298.11
2017-12-21T19:14:20.194Z,102301.25
2017-12-21T19:16:48.548Z,102301.64
2017-12-21T19:19:17.322Z,102302.25
2017-12-21T19:21:45.697Z,102310.23
2017-12-21T19:24:14.153Z,102317.33
2017-12-21T19:26:42.532Z,102338.01
2017-12-21T19:29:10.884Z,102336.89
2017-12-21T19:31:39.301Z,102334.84
2017-12-21T19:34:07.679Z,102341.95
2017-12-21T19:36:36.029Z,102319.50
2017-12-21T19:39:04.381Z,102323.43
2017-12-21T19:41:32.768Z,102320.78
2017-12-21T19:44:01.151Z,102316.00
2017-12-21T19:46:29.507Z,102331.13
2017-12-21T19:48:58.298Z,102328.94
2017-12-21T19:51:27.128Z,102324.41
2017-12-21T19:53:55.481Z,102325.59
2017-12-21T19:56:23.849Z,102320.33
2017-12-21T19:58:52.205Z,102322.95
2017-12-21T20:01:20.962Z,102306.52
2017-12-21T20:03:49.356Z,102310.12
2017-12-21T20:06:17.707Z,102312.44
2017-12-21T20:08:46.089Z,102303.78
2017-12-21T20:11:14.592Z,102304.03
2017-12-21T20:13:42.961Z,102303.45
2017-12-21T20:16:11.342Z,102307.53
2017-12-21T20:18:39.721Z,102313.97
2017-12-21T20:21:08.072Z,102318.59
2017-12-21T20:23:36.547Z,102319.70
2017-12-21T20:26:04.919Z,102313.95
2017-12-21T20:28:33.330Z,102313.89
2017-12-21T20:31:01.716Z,102316.45
2017-12-21T20:33:30.120Z,102317.28
2017-12-21T20:35:58.492Z,102322.48
2017-12-21T20:38:26.957Z,102326.45
2017-12-21T20:40:55.354Z,102322.64
2017-12-21T20:43:23.721Z,102328.71
2017-12-21T20:45:52.186Z,102333.00
2017-12-21T20:48:20.663Z,102334.50
2017-12-21T20:50:49.018Z,102333.42
2017-12-21T20:53:17.384Z,102327.85
2017-12-21T20:55:45.791Z,102330.49
2017-12-21T20:58:14.153Z,102334.75
2017-12-21T21:00:42.557Z,102334.87
2017-12-21T21:03:11.041Z,102338.78
2017-12-21T21:05:39.397Z,102340.66
2017-12-21T21:08:07.801Z,102344.17
2017-12-21T21:10:36.187Z,102337.63
2017-12-21T21:13:04.556Z,102334.09
2017-12-21T21:15:32.964Z,102327.22
2017-12-21T21:18:01.975Z,102328.05
2017-12-21T21:20:30.728Z,102325.16
2017-12-21T21:22:59.099Z,102329.10
2017-12-21T21:25:27.475Z,102332.70
2017-12-21T21:27:55.877Z,102340.52
2017-12-21T21:30:24.392Z,102347.50
2017-12-21T21:32:52.760Z,102337.65
2017-12-21T21:35:21.617Z,102342.83
2017-12-21T21:37:49.985Z,102343.08
2017-12-21T21:40:18.360Z,102342.69
2017-12-21T21:42:46.717Z,102338.37
2017-12-21T21:45:15.081Z,102343.05
2017-12-21T21:47:43.455Z,102347.75
2017-12-21T21:50:11.805Z,102353.89
2017-12-21T21:52:40.164Z,102357.16
2017-12-21T21:55:08.545Z,102356.55
2017-12-21T21:57:36.892Z,102357.76
2017-12-21T22:00:05.239Z,102357.88
2017-12-21T22:02:33.628Z,102349.61
2017-12-21T22:05:01.976Z,102356.09
2017-12-21T22:07:30.439Z,102350.77
2017-12-21T22:09:58.818Z,102356.46
2017-12-21T22:12:27.284Z,102351.73
2017-12-21T22:14:55.639Z,102355.13
2017-12-21T22:17:24.018Z,102345.50
2017-12-21T22:19:52.373Z,102349.75
2017-12-21T22:22:20.829Z,102349.11
2017-12-21T22:24:49.205Z,102345.61
2017-12-21T22:27:17.560Z,102341.94
2017-12-21T22:29:45.940Z,102345.74
2017-12-21T22:32:14.326Z,102345.37
2017-12-21T22:34:42.698Z,102344.66
2017-12-21T22:37:11.086Z,102340.51
2017-12-21T22:39:39.627Z,102346.75
2017-12-21T22:42:07.980Z,102352.64
2017-12-21T22:44:36.765Z,102355.14
2017-12-21T22:47:05.547Z,102350.20
2017-12-21T22:49:34.318Z,102354.38
2017-12-21T22:52:02.780Z,102352.75
2017-12-21T22:54:31.256Z,102351.95
2017-12-21T22:56:59.640Z,102357.39
2017-12-21T22:59:28.006Z,102353.84
2017-12-21T23:01:56.389Z,102357.04
2017-12-21T23:04:24.745Z,102361.45
2017-12-21T23:06:53.113Z,102350.25
2017-12-21T23:09:21.488Z,102353.39
2017-12-21T23:11:49.850Z,102351.47
2017-12-21T23:14:18.721Z,102350.22
2017-12-21T23:16:47.186Z,102353.55
2017-12-21T23:19:15.540Z,102348.54
2017-12-21T23:21:43.908Z,102347.10
2017-12-21T23:24:12.284Z,102345.19
2017-12-21T23:26:40.645Z,102348.53
2017-12-21T23:29:09.495Z,102347.28
2017-12-21T23:31:37.969Z,102345.80
2017-12-21T23:34:06.350Z,102339.52
2017-12-21T23:36:34.754Z,102350.11
2017-12-21T23:39:03.140Z,102350.05
2017-12-21T23:41:31.980Z,102336.39
2017-12-21T23:44:00.382Z,102346.20
2017-12-21T23:46:28.845Z,102338.78
2017-12-21T23:48:57.235Z,102340.38
2017-12-21T23:51:25.597Z,102334.25
2017-12-21T23:53:54.431Z,102334.19
2017-12-21T23:56:22.873Z,102335.64
2017-12-21T23:58:51.240Z,102330.94
